Ramer, Alabama
Current Conditions -  °F | °C
As of 12:53 PM on Thursday 27 Nov 2014 (Local Time) from KTOI Reporting Station
Clear Clear  
Wind Chill: 55°   Ceiling: Unl
Heat Index: 55°   Visibility: 10mi
Dew Point: 28°   Wind: 15mph
Humidity: 35%   Direction: 320°NW
Pressure: 30.32"   Gusts: 21mph
Location:  32.05°N, 86.22°W
Report Text: KTOI 271853Z AUTO 32013G18KT 10SM CLR 13/M02 A3032 RMK AO2 SLP265 T01281022
Loading
Personal Weather Stations






























Interactive Weather Map New forecast layout! Learn more

10-Day Weather Forecast

Advertisements
Track Severe Weather on mobile